Time;durP1;ratioP1;P1;durP2;ratioP2;P2;SDS_P1;SDS_P2;PMS_P1;PMS_P2;Temp;Humidity;BMP_temperature;BMP_pressure;BME280_temperature;BME280_humidity;BME280_pressure;Samples;Min_cycle;Max_cycle;Signal;HPM_P1;HPM_P2
2023/02/23 00:01:46;;;;;;;;;;;;;;;8.10;87.24;98418.72;5062361;28;19924;-85
2023/02/23 00:04:11;;;;;;;;;;;;;;;8.09;87.59;98419.78;5052291;28;19932;-86
2023/02/23 00:06:37;;;;;;;;;;;;;;;8.11;86.53;98423.00;5048728;28;19924;-85
2023/02/23 00:09:10;;;;;;;;;;;;;;;8.10;86.66;98426.69;5056396;28;19917;-85
2023/02/23 00:11:36;;;;;;;;;;;;;;;8.02;86.95;98434.28;5062146;28;19963;-85
2023/02/23 00:14:02;;;;;;;;;;;;;;;8.02;86.63;98424.47;5069630;28;19963;-85
2023/02/23 00:16:27;;;;;;;;;;;;;;;8.01;87.01;98425.53;5053885;28;20018;-85
2023/02/23 00:18:53;;;;;;;;;;;;;;;7.92;86.88;98423.50;5051789;28;19927;-85
2023/02/23 00:21:20;;;;;;;;;;;;;;;7.96;87.02;98424.63;5062476;28;19923;-85
2023/02/23 00:23:53;;;;;;;;;;;;;;;7.90;86.60;98425.59;5052578;28;20356;-85
2023/02/23 00:26:20;;;;;;;;;;;;;;;7.85;87.61;98425.50;5068264;28;19921;-86
2023/02/23 00:28:46;;;;;;;;;;;;;;;7.86;87.03;98422.63;5067926;28;19921;-85
2023/02/23 00:31:11;;;;;;;;;;;;;;;7.85;86.49;98418.34;5052354;28;20382;-85
2023/02/23 00:33:36;;;;;;;;;;;;;;;7.85;86.77;98420.19;5068575;28;19933;-85
2023/02/23 00:36:07;;;;;;;;;;;;;;;7.82;86.49;98418.81;5029582;28;20019;-85
2023/02/23 00:38:34;;;;;;;;;;;;;;;7.82;86.46;98418.03;5067139;28;19920;-86
2023/02/23 00:41:04;;;;;;;;;;;;;;;7.85;86.54;98420.19;5053594;28;19920;-85
2023/02/23 00:43:32;;;;;;;;;;;;;;;7.82;86.42;98428.66;5051589;28;19920;-85
2023/02/23 00:45:57;;;;;;;;;;;;;;;7.76;86.55;98418.97;5048576;28;20592;-86
2023/02/23 00:48:22;;;;;;;;;;;;;;;7.70;86.81;98426.06;5045493;28;19929;-86
2023/02/23 00:50:56;;;;;;;;;;;;;;;7.66;86.75;98429.44;5029491;28;19921;-85
2023/02/23 00:53:21;;;;;;;;;;;;;;;7.72;86.25;98428.47;5046459;28;20015;-85
2023/02/23 00:55:46;;;;;;;;;;;;;;;7.69;86.77;98432.41;5027830;28;20067;-84
2023/02/23 00:58:12;;;;;;;;;;;;;;;7.76;87.40;98429.59;5025851;28;20054;-84
2023/02/23 01:00:41;;;;;;;;;;;;;;;7.75;86.72;98428.00;5041568;28;20031;-85
2023/02/23 01:03:06;;;;;;;;;;;;;;;7.76;86.10;98435.72;5044271;28;20301;-85
2023/02/23 01:05:33;;;;;;;;;;;;;;;7.74;87.08;98439.66;5043949;28;19932;-85
2023/02/23 01:07:58;;;;;;;;;;;;;;;7.68;86.70;98436.13;5064155;28;20015;-85
2023/02/23 01:10:24;;;;;;;;;;;;;;;7.63;87.46;98440.53;5049837;28;20006;-85
2023/02/23 01:12:50;;;;;;;;;;;;;;;7.64;86.88;98436.84;5048251;28;19956;-85
2023/02/23 01:15:16;;;;;;;;;;;;;;;7.64;87.38;98435.00;5042689;28;19917;-85
2023/02/23 01:17:41;;;;;;;;;;;;;;;7.55;87.18;98442.56;5045512;28;20015;-84
2023/02/23 01:20:18;;;;;;;;;;;;;;;7.58;87.36;98439.41;5026645;28;19992;-85
2023/02/23 01:22:48;;;;;;;;;;;;;;;7.57;87.07;98444.97;5050493;28;19939;-85
2023/02/23 01:25:13;;;;;;;;;;;;;;;7.55;88.35;98439.91;5051212;28;19927;-85
2023/02/23 01:27:45;;;;;;;;;;;;;;;7.55;87.63;98439.91;5047257;28;19920;-84
2023/02/23 01:30:14;;;;;;;;;;;;;;;7.55;88.04;98439.91;5053177;28;20390;-85
2023/02/23 01:32:39;;;;;;;;;;;;;;;7.49;88.05;98443.50;5047490;28;19916;-84
2023/02/23 01:35:11;;;;;;;;;;;;;;;7.54;88.26;98446.25;5051482;28;20584;-85
2023/02/23 01:37:39;;;;;;;;;;;;;;;7.61;87.99;98442.63;5032595;28;19925;-84
2023/02/23 01:40:09;;;;;;;;;;;;;;;7.56;87.64;98438.84;5064470;28;20003;-85
2023/02/23 01:42:38;;;;;;;;;;;;;;;7.56;88.73;98444.16;5049096;28;20031;-84
2023/02/23 01:45:18;;;;;;;;;;;;;;;7.57;88.24;98440.47;5052842;28;19942;-84
2023/02/23 01:47:43;;;;;;;;;;;;;;;7.62;88.50;98436.28;5044080;28;20423;-85
2023/02/23 01:50:10;;;;;;;;;;;;;;;7.63;88.22;98432.56;5046790;28;20069;-85
2023/02/23 01:52:36;;;;;;;;;;;;;;;7.61;88.08;98427.50;5034002;28;19935;-84
2023/02/23 01:55:01;;;;;;;;;;;;;;;7.62;88.14;98431.78;5048394;28;19925;-85
2023/02/23 01:57:27;;;;;;;;;;;;;;;7.67;87.70;98431.84;5049223;28;19932;-85
2023/02/23 01:59:52;;;;;;;;;;;;;;;7.67;87.94;98433.69;5047870;28;20553;-84
2023/02/23 02:02:20;;;;;;;;;;;;;;;7.66;88.51;98427.59;5049596;28;19960;-85
2023/02/23 02:04:46;;;;;;;;;;;;;;;7.57;87.91;98429.84;5059171;28;20348;-84
2023/02/23 02:07:13;;;;;;;;;;;;;;;7.58;88.57;98423.47;5066504;28;19928;-84
2023/02/23 02:09:41;;;;;;;;;;;;;;;7.62;88.21;98420.34;5062685;28;19917;-84
2023/02/23 02:12:11;;;;;;;;;;;;;;;7.62;88.93;98428.31;5054777;28;19992;-84
2023/02/23 02:14:37;;;;;;;;;;;;;;;7.61;87.99;98434.66;5034244;28;19984;-84
2023/02/23 02:17:05;;;;;;;;;;;;;;;7.64;88.68;98424.38;5060870;28;19921;-85
2023/02/23 02:20:13;;;;;;;;;;;;;;;7.65;88.92;98431.28;5066571;28;19921;-84
2023/02/23 02:22:38;;;;;;;;;;;;;;;7.65;88.55;98427.81;5031038;28;19928;-84
2023/02/23 02:25:14;;;;;;;;;;;;;;;7.69;88.66;98421.00;5030614;28;19925;-85
2023/02/23 02:28:02;;;;;;;;;;;;;;;7.60;88.27;98423.22;5030476;28;19920;-85
2023/02/23 02:30:34;;;;;;;;;;;;;;;7.65;88.70;98423.31;5052258;28;20443;-84
2023/02/23 02:33:05;;;;;;;;;;;;;;;7.63;87.97;98414.78;5052093;28;19916;-84
2023/02/23 02:35:30;;;;;;;;;;;;;;;7.67;88.66;98413.25;5047478;28;19928;-85
2023/02/23 02:38:02;;;;;;;;;;;;;;;7.66;88.08;98406.34;5064350;28;19924;-85
2023/02/23 02:40:54;;;;;;;;;;;;;;;7.70;88.16;98409.31;5050561;28;19917;-85
2023/02/23 02:43:26;;;;;;;;;;;;;;;7.74;88.07;98403.28;5049586;28;20199;-85
2023/02/23 02:46:03;;;;;;;;;;;;;;;7.70;88.46;98409.31;5048059;28;20300;-85
2023/02/23 02:48:29;;;;;;;;;;;;;;;7.60;88.44;98406.50;5055063;28;19987;-85
2023/02/23 02:50:55;;;;;;;;;;;;;;;7.64;88.72;98405.78;5065830;28;19923;-85
2023/02/23 02:53:40;;;;;;;;;;;;;;;7.43;89.21;98409.94;5050282;28;20273;-85
2023/02/23 02:56:06;;;;;;;;;;;;;;;7.63;88.36;98411.31;5061003;28;19931;-85
2023/02/23 02:58:32;;;;;;;;;;;;;;;7.30;88.37;98407.56;5053963;28;19924;-85
2023/02/23 04:17:36;;;;;;;;;;;;;;;7.54;87.78;98416.22;5056999;28;20328;-84
2023/02/23 04:20:02;;;;;;;;;;;;;;;7.52;87.32;98416.47;5033393;28;20016;-84
2023/02/23 04:22:28;;;;;;;;;;;;;;;7.48;87.75;98417.19;5049545;28;20327;-85
2023/02/23 04:24:53;;;;;;;;;;;;;;;7.49;87.54;98418.81;5055756;28;20387;-85
2023/02/23 04:27:18;;;;;;;;;;;;;;;7.46;88.25;98412.13;5049361;28;19988;-86
2023/02/23 04:29:44;;;;;;;;;;;;;;;7.34;87.66;98410.53;5064549;28;19974;-85
2023/02/23 04:32:14;;;;;;;;;;;;;;;7.37;88.35;98410.06;5052935;28;20372;-85
2023/02/23 04:34:40;;;;;;;;;;;;;;;7.47;87.77;98410.25;5050551;28;19928;-85
2023/02/23 04:37:05;;;;;;;;;;;;;;;7.48;87.60;98415.34;5047647;28;19924;-84
2023/02/23 04:39:31;;;;;;;;;;;;;;;7.46;88.09;98414.78;5052939;28;19951;-85
2023/02/23 04:41:56;;;;;;;;;;;;;;;7.44;87.64;98403.59;5038523;28;19975;-85
2023/02/23 04:44:21;;;;;;;;;;;;;;;7.47;87.67;98412.91;5054337;28;19925;-84
2023/02/23 04:46:46;;;;;;;;;;;;;;;7.45;87.74;98407.84;5051678;28;20324;-85
2023/02/23 04:49:11;;;;;;;;;;;;;;;7.45;87.88;98402.53;5051404;28;19925;-84
2023/02/23 04:51:37;;;;;;;;;;;;;;;7.47;87.52;98405.75;5043091;28;20008;-85
2023/02/23 04:54:02;;;;;;;;;;;;;;;7.45;87.81;98407.84;5027998;28;19928;-84
2023/02/23 04:56:28;;;;;;;;;;;;;;;7.43;87.30;98401.16;5058729;28;19917;-84
2023/02/23 04:58:53;;;;;;;;;;;;;;;7.41;87.74;98409.38;5044956;28;19975;-85
2023/02/23 05:01:20;;;;;;;;;;;;;;;7.44;87.58;98408.91;5046969;28;20271;-85
2023/02/23 05:03:46;;;;;;;;;;;;;;;7.43;87.32;98409.13;5027469;28;19940;-84
2023/02/23 05:06:12;;;;;;;;;;;;;;;7.37;87.74;98408.22;5057982;28;19917;-85
2023/02/23 05:08:37;;;;;;;;;;;;;;;7.40;87.79;98414.94;5047076;28;20295;-85
2023/02/23 05:11:02;;;;;;;;;;;;;;;7.34;87.62;98411.34;5047440;28;19946;-86
2023/02/23 05:13:27;;;;;;;;;;;;;;;7.32;87.91;98415.28;5049804;28;19928;-84
2023/02/23 05:15:56;;;;;;;;;;;;;;;7.28;88.42;98409.66;5046552;28;19921;-86
2023/02/23 05:18:22;;;;;;;;;;;;;;;7.28;88.09;98411.50;5065219;28;19991;-85
2023/02/23 05:20:47;;;;;;;;;;;;;;;7.25;88.19;98412.78;5047745;28;19931;-87
2023/02/23 05:23:13;;;;;;;;;;;;;;;7.24;87.89;98415.69;5047444;28;19920;-85
2023/02/23 05:25:38;;;;;;;;;;;;;;;7.13;89.35;98411.22;5045338;28;19920;-86
2023/02/23 05:28:04;;;;;;;;;;;;;;;7.09;89.28;98410.91;5050970;28;19928;-86
2023/02/23 05:30:29;;;;;;;;;;;;;;;7.19;89.07;98423.53;5031063;28;19925;-85
2023/02/23 05:32:55;;;;;;;;;;;;;;;7.27;87.97;98418.66;5046167;28;21567;-84
2023/02/23 05:35:20;;;;;;;;;;;;;;;7.32;88.05;98423.25;5049582;28;19917;-85
2023/02/23 05:37:45;;;;;;;;;;;;;;;7.26;88.77;98418.91;5036970;28;20010;-84
2023/02/23 05:40:11;;;;;;;;;;;;;;;7.28;88.83;98422.94;5059508;28;20015;-85
2023/02/23 05:42:37;;;;;;;;;;;;;;;7.20;89.53;98425.16;5026941;28;19936;-85
2023/02/23 05:45:03;;;;;;;;;;;;;;;7.26;88.86;98417.06;5026782;28;20368;-85
2023/02/23 05:47:30;;;;;;;;;;;;;;;7.30;88.63;98423.50;5043957;28;20263;-85
2023/02/23 05:49:55;;;;;;;;;;;;;;;7.28;88.33;98417.63;5045835;28;19924;-84
2023/02/23 05:52:21;;;;;;;;;;;;;;;7.32;88.59;98421.41;5044326;28;20211;-85
2023/02/23 05:54:47;;;;;;;;;;;;;;;7.32;88.23;98421.41;5048882;28;20401;-85
2023/02/23 05:57:12;;;;;;;;;;;;;;;7.29;88.79;98421.91;5030219;28;19990;-85
2023/02/23 05:59:37;;;;;;;;;;;;;;;7.31;88.92;98419.81;5060403;28;20324;-85
2023/02/23 06:02:06;;;;;;;;;;;;;;;7.34;88.09;98416.66;5032361;28;19963;-86
2023/02/23 06:04:31;;;;;;;;;;;;;;;7.36;88.25;98422.53;5067132;28;19916;-84
2023/02/23 06:06:57;;;;;;;;;;;;;;;7.11;88.51;98414.13;5052753;28;19917;-85
2023/02/23 06:09:23;;;;;;;;;;;;;;;6.90;89.75;98420.09;5065629;28;20307;-84
2023/02/23 06:11:48;;;;;;;;;;;;;;;7.12;90.18;98418.38;5053830;28;19916;-85
2023/02/23 06:14:15;;;;;;;;;;;;;;;7.11;88.79;98427.38;5069921;28;19925;-84
2023/02/23 06:16:40;;;;;;;;;;;;;;;6.84;89.32;98423.66;5050083;28;19921;-85
2023/02/23 06:19:06;;;;;;;;;;;;;;;7.04;91.07;98424.06;5054044;28;20019;-84
2023/02/23 06:21:31;;;;;;;;;;;;;;;7.17;89.52;98426.44;5052042;28;19925;-84
2023/02/23 06:23:59;;;;;;;;;;;;;;;7.16;89.39;98426.69;5052652;28;19925;-85
2023/02/23 06:26:24;;;;;;;;;;;;;;;6.78;90.75;98428.06;5036125;28;19984;-85
2023/02/23 06:28:50;;;;;;;;;;;;;;;6.76;90.70;98431.97;5055125;28;19960;-84
2023/02/23 06:31:15;;;;;;;;;;;;;;;7.15;90.22;98436.47;5035347;28;20341;-86
2023/02/23 06:33:40;;;;;;;;;;;;;;;7.24;89.85;98429.75;5035112;28;20363;-86
2023/02/23 06:36:06;;;;;;;;;;;;;;;7.28;89.28;98425.59;5053088;28;20392;-85
2023/02/23 06:38:31;;;;;;;;;;;;;;;7.34;88.83;98434.44;5054161;28;19925;-86
2023/02/23 06:40:56;;;;;;;;;;;;;;;7.39;88.53;98431.88;5069854;28;20303;-85
2023/02/23 06:43:22;;;;;;;;;;;;;;;7.36;88.98;98440.34;5054606;28;19928;-86
2023/02/23 06:45:47;;;;;;;;;;;;;;;7.35;88.33;98444.84;5069897;28;19956;-85
2023/02/23 06:48:12;;;;;;;;;;;;;;;7.32;89.48;98442.66;5037338;28;19944;-85
2023/02/23 06:50:37;;;;;;;;;;;;;;;7.41;88.87;98454.50;5053370;28;19916;-85
2023/02/23 06:53:03;;;;;;;;;;;;;;;7.36;88.67;98451.75;5056402;28;20303;-85
2023/02/23 06:55:29;;;;;;;;;;;;;;;7.46;88.30;98457.25;5057385;28;19920;-84
2023/02/23 06:57:54;;;;;;;;;;;;;;;7.43;88.72;98454.25;5057484;28;20011;-84
2023/02/23 07:00:19;;;;;;;;;;;;;;;7.39;88.64;98456.59;5068839;28;19967;-85
2023/02/23 07:02:45;;;;;;;;;;;;;;;7.41;89.08;98451.84;5072052;28;20220;-84
2023/02/23 07:05:10;;;;;;;;;;;;;;;7.46;88.28;98454.59;5034903;28;19928;-85
2023/02/23 07:07:35;;;;;;;;;;;;;;;7.45;88.80;98462.78;5056641;28;19999;-86
2023/02/23 07:10:01;;;;;;;;;;;;;;;7.46;88.66;98461.75;5038895;28;19927;-86
2023/02/23 07:12:26;;;;;;;;;;;;;;;7.46;88.46;98470.53;5055180;28;19924;-86
2023/02/23 07:14:51;;;;;;;;;;;;;;;7.42;88.70;98463.28;5054321;28;19956;-85
2023/02/23 07:17:16;;;;;;;;;;;;;;;7.45;88.69;98466.25;5073447;28;19932;-85
2023/02/23 07:19:42;;;;;;;;;;;;;;;7.52;88.32;98466.91;5056321;28;20372;-85
2023/02/23 07:22:07;;;;;;;;;;;;;;;7.36;89.35;98475.63;5073553;28;20020;-85
2023/02/23 07:24:33;;;;;;;;;;;;;;;7.32;89.66;98479.81;5058079;28;20331;-85
2023/02/23 07:26:58;;;;;;;;;;;;;;;7.45;89.11;98478.72;5057194;28;19917;-86
2023/02/23 07:29:23;;;;;;;;;;;;;;;7.40;89.54;98484.72;5055404;28;19924;-85
2023/02/23 07:31:48;;;;;;;;;;;;;;;7.38;88.93;98486.03;5038463;28;19948;-86
2023/02/23 07:34:14;;;;;;;;;;;;;;;7.43;88.65;98489.59;5073442;28;19928;-86
2023/02/23 07:36:39;;;;;;;;;;;;;;;7.51;89.07;98470.59;5061805;28;20291;-85
2023/02/23 07:39:05;;;;;;;;;;;;;;;7.53;88.34;98478.34;5063849;28;19921;-84
2023/02/23 07:41:30;;;;;;;;;;;;;;;7.55;88.57;98484.22;5058060;28;20016;-84
2023/02/23 07:43:57;;;;;;;;;;;;;;;7.64;89.15;98476.69;5067873;28;19925;-86
2023/02/23 07:46:22;;;;;;;;;;;;;;;7.62;88.32;98484.91;5066487;28;19916;-85
2023/02/23 07:48:47;;;;;;;;;;;;;;;7.60;88.95;98483.53;5070240;28;19925;-84
2023/02/23 07:51:14;;;;;;;;;;;;;;;7.63;89.41;98483.03;5072133;28;19927;-84
2023/02/23 07:53:40;;;;;;;;;;;;;;;7.66;88.98;98482.56;5071622;28;20030;-85
2023/02/23 07:56:07;;;;;;;;;;;;;;;7.54;89.84;98483.41;5052896;28;20363;-84
2023/02/23 07:58:32;;;;;;;;;;;;;;;7.40;90.27;98486.59;5079756;28;19920;-84
2023/02/23 08:00:57;;;;;;;;;;;;;;;7.25;91.86;98489.75;5053220;28;19917;-84
2023/02/23 08:03:23;;;;;;;;;;;;;;;6.99;92.10;98492.94;5067832;28;19920;-83
2023/02/23 08:05:48;;;;;;;;;;;;;;;6.80;92.47;98502.91;5056444;28;19939;-83
2023/02/23 08:08:13;;;;;;;;;;;;;;;6.78;93.38;98504.97;5065587;28;20280;-83
2023/02/23 08:10:39;;;;;;;;;;;;;;;6.89;93.26;98500.69;5050137;28;19928;-83
2023/02/23 08:13:04;;;;;;;;;;;;;;;6.94;93.51;98492.84;5058419;28;19928;-83
2023/02/23 08:15:30;;;;;;;;;;;;;;;6.97;92.89;98502.19;5057549;28;19924;-82
2023/02/23 08:17:56;;;;;;;;;;;;;;;7.04;93.39;98494.88;5060624;28;19917;-83
2023/02/23 08:20:21;;;;;;;;;;;;;;;7.21;91.98;98493.91;5058557;28;19916;-83
2023/02/23 08:22:46;;;;;;;;;;;;;;;7.50;91.01;98500.88;5072756;28;19928;-84
2023/02/23 08:25:11;;;;;;;;;;;;;;;7.57;90.27;98501.53;5058296;28;19916;-83
2023/02/23 08:27:37;;;;;;;;;;;;;;;7.55;89.62;98506.28;5070079;28;19956;-83
2023/02/23 08:30:04;;;;;;;;;;;;;;;7.46;90.88;98513.00;5068916;28;19917;-82
2023/02/23 08:32:33;;;;;;;;;;;;;;;7.68;90.47;98504.38;5057911;28;19990;-84
2023/02/23 08:35:01;;;;;;;;;;;;;;;7.70;89.57;98507.59;5063187;28;19932;-84
2023/02/23 08:37:28;;;;;;;;;;;;;;;7.84;88.55;98504.41;5062585;28;19925;-84
2023/02/23 08:39:53;;;;;;;;;;;;;;;7.80;88.47;98502.50;5062256;28;19993;-84
2023/02/23 08:42:18;;;;;;;;;;;;;;;7.64;88.69;98511.22;5075908;28;19987;-84
2023/02/23 08:44:43;;;;;;;;;;;;;;;7.32;89.81;98509.00;5063932;28;19944;-85
2023/02/23 08:47:09;;;;;;;;;;;;;;;7.69;89.41;98511.31;5080439;28;19928;-85
2023/02/23 08:49:34;;;;;;;;;;;;;;;7.67;89.80;98513.38;5055253;28;19975;-85
2023/02/23 08:51:59;;;;;;;;;;;;;;;7.63;89.26;98506.94;5055647;28;19928;-85
2023/02/23 08:54:25;;;;;;;;;;;;;;;7.35;90.85;98511.19;5065641;28;19924;-84
2023/02/23 08:56:54;;;;;;;;;;;;;;;7.12;91.61;98511.25;5063577;28;19927;-82
2023/02/23 08:59:19;;;;;;;;;;;;;;;7.46;90.61;98513.00;5079824;28;19920;-84
2023/02/23 09:01:45;;;;;;;;;;;;;;;7.51;90.06;98515.75;5064155;28;19975;-84
2023/02/23 09:04:10;;;;;;;;;;;;;;;7.20;91.70;98512.75;5077781;28;19925;-84
2023/02/23 09:06:36;;;;;;;;;;;;;;;6.94;93.28;98523.88;5073728;28;19951;-83
2023/02/23 09:09:02;;;;;;;;;;;;;;;6.91;94.04;98519.84;5057496;28;20007;-83
2023/02/23 09:11:27;;;;;;;;;;;;;;;6.94;93.95;98519.38;5059630;28;19920;-83
2023/02/23 09:13:53;;;;;;;;;;;;;;;6.88;95.14;98525.59;5046096;28;20334;-82
2023/02/23 09:16:18;;;;;;;;;;;;;;;6.74;95.68;98532.19;5059656;28;19942;-85
2023/02/23 09:18:43;;;;;;;;;;;;;;;6.66;96.49;98529.91;5060749;28;20031;-83
2023/02/23 09:21:17;;;;;;;;;;;;;;;6.70;97.04;98534.50;5061152;28;19920;-83
2023/02/23 09:23:43;;;;;;;;;;;;;;;7.04;94.34;98530.19;5062796;28;20037;-84
2023/02/23 09:26:09;;;;;;;;;;;;;;;6.88;95.69;98538.06;5058642;28;20388;-84
2023/02/23 09:28:37;;;;;;;;;;;;;;;6.79;95.71;98532.31;5068650;28;19921;-84
2023/02/23 09:31:07;;;;;;;;;;;;;;;6.73;95.95;98544.63;5065551;28;20346;-84
2023/02/23 09:33:32;;;;;;;;;;;;;;;7.00;95.03;98539.66;5072904;28;19924;-83
2023/02/23 09:35:58;;;;;;;;;;;;;;;6.80;95.95;98542.69;5065353;28;19916;-82
2023/02/23 09:38:23;;;;;;;;;;;;;;;6.65;95.89;98544.19;5053355;28;19920;-82
2023/02/23 09:40:52;;;;;;;;;;;;;;;7.24;94.06;98532.47;5071450;28;19921;-83
2023/02/23 09:43:32;;;;;;;;;;;;;;;6.88;94.79;98546.03;5056179;28;19917;-84
2023/02/23 09:46:19;;;;;;;;;;;;;;;6.88;96.58;98535.41;5065152;28;19923;-84
2023/02/23 09:48:44;;;;;;;;;;;;;;;7.26;93.40;98541.81;5062717;28;19917;-83
2023/02/23 09:51:15;;;;;;;;;;;;;;;7.18;94.35;98536.06;5047296;28;19921;-84
2023/02/23 09:53:48;;;;;;;;;;;;;;;7.21;94.23;98544.34;5055804;28;19995;-84
2023/02/23 09:56:30;;;;;;;;;;;;;;;7.54;92.50;98543.69;5071902;28;19956;-84
2023/02/23 09:58:55;;;;;;;;;;;;;;;7.41;92.64;98539.47;5059748;28;19917;-84
2023/02/23 10:01:39;;;;;;;;;;;;;;;7.17;94.25;98543.22;5052647;28;20383;-84
2023/02/23 10:04:05;;;;;;;;;;;;;;;7.15;95.14;98545.28;5061233;28;19957;-84
2023/02/23 10:06:30;;;;;;;;;;;;;;;7.13;95.59;98538.59;5056859;28;20015;-84
2023/02/23 10:09:02;;;;;;;;;;;;;;;7.09;96.67;98532.97;5057791;28;19931;-84
2023/02/23 10:11:42;;;;;;;;;;;;;;;7.03;97.30;98546.34;5081496;28;20059;-84
2023/02/23 10:14:17;;;;;;;;;;;;;;;7.00;98.46;98554.78;5062992;28;19921;-84
2023/02/23 10:17:01;;;;;;;;;;;;;;;7.23;96.71;98552.88;5060361;28;19916;-85
2023/02/23 10:19:29;;;;;;;;;;;;;;;7.31;96.49;98555.19;5064657;28;20322;-84
2023/02/23 10:22:00;;;;;;;;;;;;;;;7.11;98.03;98559.25;5056882;28;19939;-84
2023/02/23 10:24:40;;;;;;;;;;;;;;;7.09;97.95;98564.81;5065442;28;20183;-84
2023/02/23 10:27:16;;;;;;;;;;;;;;;7.10;98.27;98566.41;5064017;28;19917;-84
2023/02/23 10:29:47;;;;;;;;;;;;;;;7.14;98.03;98556.94;5062146;28;19924;-84
2023/02/23 10:32:12;;;;;;;;;;;;;;;7.19;97.61;98551.75;5051484;28;19945;-84
2023/02/23 10:34:38;;;;;;;;;;;;;;;7.29;96.84;98553.81;5056274;28;19925;-84
2023/02/23 10:37:08;;;;;;;;;;;;;;;7.64;94.48;98557.19;5063286;28;19901;-83
2023/02/23 10:39:34;;;;;;;;;;;;;;;7.85;92.12;98553.84;5075611;28;19978;-83
2023/02/23 10:42:01;;;;;;;;;;;;;;;7.75;92.66;98552.84;5066640;28;19921;-82
2023/02/23 10:44:27;;;;;;;;;;;;;;;7.71;93.90;98549.84;5069723;28;20386;-84
2023/02/23 10:47:14;;;;;;;;;;;;;;;7.88;91.59;98553.38;5061022;28;19921;-83
2023/02/23 10:49:45;;;;;;;;;;;;;;;8.02;90.22;98553.88;5060630;28;19923;-84
2023/02/23 10:52:12;;;;;;;;;;;;;;;7.86;92.34;98552.81;5071504;28;19927;-84
2023/02/23 10:54:46;;;;;;;;;;;;;;;7.75;93.99;98553.66;5072400;28;19920;-83
2023/02/23 10:57:31;;;;;;;;;;;;;;;7.99;91.90;98549.88;5065987;28;19963;-83
2023/02/23 11:00:15;;;;;;;;;;;;;;;8.15;90.39;98554.38;5063147;28;20242;-84
2023/02/23 11:02:41;;;;;;;;;;;;;;;8.22;90.15;98548.91;5054910;28;19916;-85
2023/02/23 11:05:24;;;;;;;;;;;;;;;8.23;89.69;98548.66;5083390;28;19920;-84
2023/02/23 11:07:51;;;;;;;;;;;;;;;8.24;90.01;98546.81;5067293;28;20015;-83
2023/02/23 11:10:27;;;;;;;;;;;;;;;8.25;90.30;98543.97;5064567;28;20015;-83
2023/02/23 11:12:52;;;;;;;;;;;;;;;8.06;92.59;98545.19;5055326;28;19924;-84
2023/02/23 11:15:20;;;;;;;;;;;;;;;7.91;94.28;98555.53;5042625;28;19933;-85
2023/02/23 11:17:53;;;;;;;;;;;;;;;7.72;94.78;98554.13;5074513;28;19976;-85
2023/02/23 11:20:24;;;;;;;;;;;;;;;7.83;96.00;98549.81;5071910;28;20008;-85
2023/02/23 11:22:51;;;;;;;;;;;;;;;7.82;95.74;98540.25;5064390;28;19916;-84
2023/02/23 11:25:23;;;;;;;;;;;;;;;7.95;95.79;98534.63;5042686;28;19931;-85
2023/02/23 11:27:50;;;;;;;;;;;;;;;7.68;96.34;98536.25;5062088;28;19920;-84
2023/02/23 11:30:19;;;;;;;;;;;;;;;7.64;98.48;98540.44;5058483;28;19920;-85
2023/02/23 11:32:49;;;;;;;;;;;;;;;7.83;95.74;98529.38;5072553;28;20079;-85
2023/02/23 11:35:20;;;;;;;;;;;;;;;8.09;92.16;98527.97;5075661;28;20835;-85
2023/02/23 11:37:46;;;;;;;;;;;;;;;8.24;91.54;98530.88;5055059;28;19916;-85
2023/02/23 11:40:23;;;;;;;;;;;;;;;8.27;90.88;98515.28;5052038;28;19931;-85
2023/02/23 11:42:54;;;;;;;;;;;;;;;8.36;90.34;98512.22;5062862;28;19943;-85
2023/02/23 11:45:21;;;;;;;;;;;;;;;8.27;92.66;98523.25;5059287;28;20265;-85
2023/02/23 11:47:51;;;;;;;;;;;;;;;8.40;90.96;98519.47;5075932;28;19920;-84
2023/02/23 11:50:31;;;;;;;;;;;;;;;8.42;90.62;98513.91;5069483;28;20323;-84
2023/02/23 11:53:12;;;;;;;;;;;;;;;8.17;93.87;98519.56;5063465;28;19958;-84
2023/02/23 11:55:38;;;;;;;;;;;;;;;8.10;93.15;98514.41;5055207;28;19925;-85
2023/02/23 11:58:22;;;;;;;;;;;;;;;8.23;92.64;98518.63;5069554;28;19916;-84
2023/02/23 12:00:55;;;;;;;;;;;;;;;8.39;91.15;98511.75;5058897;28;19917;-84
2023/02/23 12:03:22;;;;;;;;;;;;;;;8.29;91.42;98512.38;5048927;28;19956;-85
2023/02/23 12:05:52;;;;;;;;;;;;;;;8.09;94.04;98517.31;5055788;28;20003;-85
2023/02/23 12:08:32;;;;;;;;;;;;;;;8.08;93.67;98518.38;5060438;28;19917;-85
2023/02/23 12:10:59;;;;;;;;;;;;;;;8.07;94.72;98514.09;5070573;28;20015;-85
2023/02/23 12:13:27;;;;;;;;;;;;;;;7.93;95.42;98515.47;5056277;28;19928;-84
2023/02/23 12:16:05;;;;;;;;;;;;;;;8.10;94.71;98517.06;5053922;28;19935;-84
2023/02/23 12:18:33;;;;;;;;;;;;;;;8.31;91.34;98507.63;5055951;28;19921;-84
2023/02/23 12:21:03;;;;;;;;;;;;;;;8.18;93.55;98514.03;5053978;28;19958;-86
2023/02/23 12:23:32;;;;;;;;;;;;;;;7.98;95.30;98513.69;5056610;28;19920;-85
2023/02/23 12:26:07;;;;;;;;;;;;;;;7.88;95.06;98508.22;5072288;28;20427;-85
2023/02/23 12:28:35;;;;;;;;;;;;;;;7.85;96.99;98505.22;5067552;28;19947;-85
2023/02/23 12:31:23;;;;;;;;;;;;;;;7.75;97.78;98503.19;5068976;28;20387;-85
2023/02/23 12:33:57;;;;;;;;;;;;;;;7.76;98.27;98493.34;5066077;28;20325;-86
2023/02/23 12:36:41;;;;;;;;;;;;;;;7.77;98.40;98503.75;5072800;28;19923;-85
2023/02/23 12:39:19;;;;;;;;;;;;;;;7.69;98.66;98500.69;5056500;28;19982;-85
2023/02/23 12:41:54;;;;;;;;;;;;;;;8.05;94.07;98497.59;5072494;28;19986;-85
2023/02/23 12:44:37;;;;;;;;;;;;;;;8.20;91.94;98493.34;5045671;28;19917;-86
2023/02/23 12:47:19;;;;;;;;;;;;;;;8.22;92.82;98501.06;5056077;28;19951;-85
2023/02/23 12:49:47;;;;;;;;;;;;;;;8.28;92.05;98492.16;5080315;28;19917;-85
2023/02/23 12:52:25;;;;;;;;;;;;;;;8.11;94.20;98496.63;5051593;28;19924;-85
2023/02/23 12:54:51;;;;;;;;;;;;;;;8.30;92.42;98482.88;5057473;28;19928;-84
2023/02/23 12:57:28;;;;;;;;;;;;;;;8.41;90.67;98493.69;5071073;28;19916;-85
2023/02/23 12:59:59;;;;;;;;;;;;;;;8.43;90.76;98491.59;5055830;28;19912;-84
2023/02/23 13:02:28;;;;;;;;;;;;;;;8.48;90.76;98494.31;5061568;28;19931;-85
2023/02/23 13:04:53;;;;;;;;;;;;;;;8.52;90.63;98488.25;5077980;28;20378;-85
2023/02/23 13:07:27;;;;;;;;;;;;;;;8.52;90.44;98495.47;5056782;28;19925;-85
2023/02/23 13:10:04;;;;;;;;;;;;;;;8.51;90.25;98484.00;5055685;28;20248;-85
2023/02/23 13:12:42;;;;;;;;;;;;;;;8.53;89.89;98486.41;5051114;28;20364;-84
2023/02/23 13:15:28;;;;;;;;;;;;;;;8.33;92.96;98486.91;5054744;28;19959;-86
2023/02/23 13:18:09;;;;;;;;;;;;;;;8.49;91.17;98483.44;5054230;28;19923;-85
2023/02/23 13:20:37;;;;;;;;;;;;;;;8.15;94.48;98489.78;5055964;28;19939;-85
2023/02/23 13:23:02;;;;;;;;;;;;;;;8.37;92.46;98480.06;5067752;28;19916;-84
2023/02/23 13:25:35;;;;;;;;;;;;;;;8.04;95.51;98480.03;5064461;28;19917;-85
2023/02/23 13:28:02;;;;;;;;;;;;;;;8.16;94.86;98486.91;5069673;28;20384;-85
2023/02/23 13:30:31;;;;;;;;;;;;;;;8.32;92.89;98481.84;5063445;28;20011;-84
2023/02/23 13:32:57;;;;;;;;;;;;;;;8.39;91.55;98479.84;5036454;28;20668;-84
2023/02/23 13:35:23;;;;;;;;;;;;;;;8.37;92.19;98474.75;5061277;28;20038;-85
2023/02/23 13:37:51;;;;;;;;;;;;;;;8.53;90.69;98476.59;5060125;28;19928;-85
2023/02/23 13:40:16;;;;;;;;;;;;;;;8.58;90.08;98474.00;5066592;28;19921;-84
2023/02/23 13:42:57;;;;;;;;;;;;;;;8.61;90.74;98483.31;5051877;28;19948;-85
2023/02/23 13:45:31;;;;;;;;;;;;;;;8.57;90.37;98479.56;5067054;28;20011;-84
2023/02/23 13:48:05;;;;;;;;;;;;;;;8.59;90.79;98478.25;5051291;28;19925;-85
2023/02/23 13:50:51;;;;;;;;;;;;;;;8.58;90.77;98482.00;5069618;28;19924;-85
2023/02/23 13:53:32;;;;;;;;;;;;;;;8.62;90.02;98480.44;5044576;28;19931;-84
2023/02/23 13:55:58;;;;;;;;;;;;;;;8.67;90.04;98487.69;5047211;28;19917;-84
2023/02/23 13:58:28;;;;;;;;;;;;;;;8.65;90.28;98479.94;5051488;28;19924;-84
2023/02/23 14:01:04;;;;;;;;;;;;;;;8.57;90.87;98480.38;5067562;28;20027;-85
2023/02/23 14:03:32;;;;;;;;;;;;;;;8.55;90.87;98479.00;5050568;28;19916;-85
2023/02/23 14:05:59;;;;;;;;;;;;;;;8.51;91.18;98478.69;5054721;28;19984;-85
2023/02/23 14:08:35;;;;;;;;;;;;;;;8.55;90.27;98485.13;5052536;28;20584;-85
2023/02/23 14:11:01;;;;;;;;;;;;;;;8.61;90.58;98484.13;5067989;28;19963;-85
2023/02/23 14:13:27;;;;;;;;;;;;;;;8.59;90.19;98488.91;5052260;28;19924;-85
2023/02/23 14:16:14;;;;;;;;;;;;;;;8.58;90.70;98478.53;5065685;28;20400;-86
2023/02/23 14:19:04;;;;;;;;;;;;;;;8.59;90.36;98480.09;5052694;28;19924;-86
2023/02/23 14:21:51;;;;;;;;;;;;;;;8.32;92.70;98482.66;5067148;28;19959;-85
2023/02/23 14:24:19;;;;;;;;;;;;;;;8.47;91.43;98482.06;5054226;28;20443;-86